Time;durP1;ratioP1;P1;durP2;ratioP2;P2;SDS_P1;SDS_P2;PMS_P1;PMS_P2;Temp;Humidity;BMP_temperature;BMP_pressure;BME280_temperature;BME280_humidity;BME280_pressure;Samples;Min_cycle;Max_cycle;Signal;HPM_P1;HPM_P2
2024/01/12 00:01:33;;;;;;;35.80;13.85;;;;;;;;;;4982645;28;20045;-89
2024/01/12 00:03:59;;;;;;;35.83;13.70;;;;;;;;;;4998145;28;20046;-88
2024/01/12 00:06:24;;;;;;;36.70;13.88;;;;;;;;;;4979585;28;20568;-88
2024/01/12 00:08:50;;;;;;;37.03;13.45;;;;;;;;;;4999317;28;20034;-89
2024/01/12 00:11:16;;;;;;;35.10;12.40;;;;;;;;;;4979495;28;20041;-88
2024/01/12 00:13:42;;;;;;;39.90;13.30;;;;;;;;;;4998269;28;20041;-87
2024/01/12 00:16:07;;;;;;;33.53;12.75;;;;;;;;;;4995860;28;20034;-88
2024/01/12 00:18:33;;;;;;;37.53;13.55;;;;;;;;;;4979083;28;20039;-89
2024/01/12 00:20:59;;;;;;;41.08;14.00;;;;;;;;;;4995097;28;20585;-88
2024/01/12 00:23:25;;;;;;;34.53;12.95;;;;;;;;;;4994732;28;20046;-89
2024/01/12 00:25:50;;;;;;;34.78;13.60;;;;;;;;;;4997623;28;20034;-88
2024/01/12 00:28:16;;;;;;;34.95;12.60;;;;;;;;;;4998911;28;20093;-89
2024/01/12 00:30:41;;;;;;;34.72;13.18;;;;;;;;;;4997524;28;20038;-89
2024/01/12 00:33:08;;;;;;;34.90;12.20;;;;;;;;;;4987858;28;20136;-89
2024/01/12 00:35:33;;;;;;;33.50;12.98;;;;;;;;;;4996360;28;20026;-88
2024/01/12 00:37:59;;;;;;;34.78;12.63;;;;;;;;;;4981470;28;20046;-89
2024/01/12 00:40:24;;;;;;;32.80;13.13;;;;;;;;;;4999462;28;20037;-88
2024/01/12 00:42:50;;;;;;;32.90;12.75;;;;;;;;;;4996065;28;20034;-88
2024/01/12 00:45:16;;;;;;;32.22;12.85;;;;;;;;;;4996888;28;20046;-88
2024/01/12 00:47:42;;;;;;;37.63;13.15;;;;;;;;;;4998557;28;20033;-88
2024/01/12 00:50:09;;;;;;;32.97;12.73;;;;;;;;;;4999853;28;20404;-88
2024/01/12 00:52:34;;;;;;;38.42;14.02;;;;;;;;;;4998700;28;20045;-88
2024/01/12 00:55:00;;;;;;;32.70;12.85;;;;;;;;;;4992556;28;20035;-86
2024/01/12 00:57:26;;;;;;;38.03;13.52;;;;;;;;;;4997442;28;20044;-88
2024/01/12 00:59:51;;;;;;;35.45;12.98;;;;;;;;;;4977890;28;20058;-88
2024/01/12 01:02:17;;;;;;;36.83;12.73;;;;;;;;;;4995915;28;20054;-88
2024/01/12 01:04:42;;;;;;;36.92;13.52;;;;;;;;;;4995580;28;20085;-88
2024/01/12 01:07:08;;;;;;;37.67;13.00;;;;;;;;;;4996396;28;20034;-88
2024/01/12 01:09:33;;;;;;;34.80;13.05;;;;;;;;;;4998923;28;20030;-88
2024/01/12 01:11:59;;;;;;;39.20;13.60;;;;;;;;;;4998891;28;20038;-88
2024/01/12 01:14:25;;;;;;;43.28;14.90;;;;;;;;;;4995223;28;20511;-87
2024/01/12 01:16:51;;;;;;;44.10;15.50;;;;;;;;;;4990218;28;20045;-88
2024/01/12 01:19:18;;;;;;;46.53;15.82;;;;;;;;;;4996904;28;20042;-88
2024/01/12 01:21:43;;;;;;;35.10;12.68;;;;;;;;;;4998966;28;20043;-88
2024/01/12 01:24:08;;;;;;;33.03;12.68;;;;;;;;;;4997654;28;20065;-87
2024/01/12 01:26:34;;;;;;;32.88;13.57;;;;;;;;;;4963634;28;20057;-88
2024/01/12 01:28:59;;;;;;;35.17;13.65;;;;;;;;;;4998066;28;20109;-88
2024/01/12 01:31:25;;;;;;;34.67;13.27;;;;;;;;;;4999076;28;20038;-88
2024/01/12 01:33:51;;;;;;;32.97;13.40;;;;;;;;;;4999389;28;20034;-89
2024/01/12 01:36:16;;;;;;;34.67;13.38;;;;;;;;;;4998000;28;20415;-88
2024/01/12 01:38:42;;;;;;;35.42;14.30;;;;;;;;;;4993671;28;20484;-88
2024/01/12 01:41:07;;;;;;;36.00;13.38;;;;;;;;;;4998381;28;20389;-88
2024/01/12 01:43:33;;;;;;;36.42;13.85;;;;;;;;;;4993056;28;20499;-88
2024/01/12 01:45:59;;;;;;;35.47;13.55;;;;;;;;;;4990632;28;20035;-88
2024/01/12 01:48:25;;;;;;;39.00;14.18;;;;;;;;;;4998296;28;20061;-89
2024/01/12 01:50:52;;;;;;;36.92;13.48;;;;;;;;;;4996699;28;20031;-88
2024/01/12 01:53:18;;;;;;;32.70;13.00;;;;;;;;;;4998366;28;20038;-88
2024/01/12 01:55:44;;;;;;;37.47;14.38;;;;;;;;;;4997971;28;20134;-88
2024/01/12 01:58:10;;;;;;;38.58;14.00;;;;;;;;;;4987538;28;20063;-88
2024/01/12 02:00:37;;;;;;;32.65;13.20;;;;;;;;;;4991231;28;20129;-88
2024/01/12 02:03:04;;;;;;;36.80;13.88;;;;;;;;;;4997307;28;20045;-88
2024/01/12 02:05:30;;;;;;;33.00;13.50;;;;;;;;;;4998275;28;20526;-88
2024/01/12 02:07:56;;;;;;;35.30;13.55;;;;;;;;;;4994347;28;20034;-88
2024/01/12 02:10:22;;;;;;;36.85;13.48;;;;;;;;;;4995980;28;20064;-89
2024/01/12 02:12:48;;;;;;;35.83;13.15;;;;;;;;;;4994611;28;20512;-88
2024/01/12 02:15:14;;;;;;;37.30;13.32;;;;;;;;;;4995880;28;20038;-89
2024/01/12 02:17:41;;;;;;;37.55;14.00;;;;;;;;;;4994566;28;20102;-88
2024/01/12 02:20:07;;;;;;;38.40;13.75;;;;;;;;;;4995207;28;20047;-89
2024/01/12 02:22:32;;;;;;;30.65;12.82;;;;;;;;;;4996648;28;20026;-88
2024/01/12 02:24:58;;;;;;;33.95;12.80;;;;;;;;;;4995925;28;20046;-88
2024/01/12 02:27:24;;;;;;;33.63;12.75;;;;;;;;;;4988972;28;20039;-89
2024/01/12 02:29:53;;;;;;;32.10;12.93;;;;;;;;;;4994104;28;20034;-89
2024/01/12 02:32:18;;;;;;;31.20;12.23;;;;;;;;;;4997077;28;20505;-89
2024/01/12 02:34:44;;;;;;;27.98;12.20;;;;;;;;;;4994622;28;20047;-89
2024/01/12 02:37:09;;;;;;;28.00;11.65;;;;;;;;;;4997310;28;20030;-87
2024/01/12 02:39:35;;;;;;;30.05;11.68;;;;;;;;;;4976374;28;20121;-87
2024/01/12 02:42:00;;;;;;;30.30;12.20;;;;;;;;;;4981216;28;20097;-88
2024/01/12 02:44:26;;;;;;;28.92;12.45;;;;;;;;;;4996200;28;20161;-88
2024/01/12 02:46:52;;;;;;;29.67;11.60;;;;;;;;;;4997474;28;20104;-90
2024/01/12 02:49:17;;;;;;;30.20;12.15;;;;;;;;;;4998808;28;20033;-88
2024/01/12 02:51:43;;;;;;;26.08;11.10;;;;;;;;;;4994453;28;20078;-88
2024/01/12 02:54:08;;;;;;;30.92;11.38;;;;;;;;;;5000254;28;20034;-88
2024/01/12 02:56:35;;;;;;;26.50;11.30;;;;;;;;;;5000276;28;20098;-87
2024/01/12 02:59:00;;;;;;;26.70;11.45;;;;;;;;;;4983404;28;20042;-88
2024/01/12 03:01:26;;;;;;;28.55;12.20;;;;;;;;;;4998479;28;20039;-88
2024/01/12 03:03:51;;;;;;;24.45;11.50;;;;;;;;;;4999661;28;20038;-89
2024/01/12 03:06:17;;;;;;;28.30;11.05;;;;;;;;;;5000881;28;20061;-89
2024/01/12 03:08:42;;;;;;;28.00;11.43;;;;;;;;;;4994215;28;20032;-88
2024/01/12 03:11:07;;;;;;;27.33;11.52;;;;;;;;;;4997577;28;20109;-89
2024/01/12 03:13:35;;;;;;;28.05;11.20;;;;;;;;;;5001030;28;20400;-89
2024/01/12 03:16:00;;;;;;;26.30;11.55;;;;;;;;;;4983198;28;20042;-87
2024/01/12 03:18:27;;;;;;;23.55;10.63;;;;;;;;;;4999608;28;20053;-88
2024/01/12 03:20:52;;;;;;;25.92;10.80;;;;;;;;;;4982671;28;20022;-88
2024/01/12 03:23:18;;;;;;;23.08;10.60;;;;;;;;;;4999072;28;20111;-88
2024/01/12 03:25:43;;;;;;;24.30;11.10;;;;;;;;;;4999710;28;20038;-88
2024/01/12 03:28:09;;;;;;;26.20;11.00;;;;;;;;;;4982653;28;20030;-88
2024/01/12 03:30:35;;;;;;;25.05;10.30;;;;;;;;;;4999015;28;20535;-87
2024/01/12 03:33:00;;;;;;;24.10;11.00;;;;;;;;;;4998616;28;20054;-87
2024/01/12 03:35:26;;;;;;;24.75;10.82;;;;;;;;;;4995793;28;20082;-89
2024/01/12 03:37:51;;;;;;;21.92;10.27;;;;;;;;;;4998552;28;20034;-87
2024/01/12 03:40:17;;;;;;;22.63;10.63;;;;;;;;;;4995819;28;20046;-88
2024/01/12 03:42:43;;;;;;;24.23;10.63;;;;;;;;;;4993869;28;20026;-87
2024/01/12 03:45:09;;;;;;;21.80;9.88;;;;;;;;;;4994491;28;20077;-87
2024/01/12 03:47:34;;;;;;;20.58;9.65;;;;;;;;;;4994272;28;20411;-89
2024/01/12 03:50:00;;;;;;;21.67;9.73;;;;;;;;;;4993344;28;20058;-86
2024/01/12 03:52:25;;;;;;;20.45;9.80;;;;;;;;;;4998074;28;20031;-87
2024/01/12 03:54:51;;;;;;;19.67;9.25;;;;;;;;;;4997915;28;20038;-87
2024/01/12 03:57:16;;;;;;;21.20;9.95;;;;;;;;;;4996039;28;20043;-87
2024/01/12 03:59:42;;;;;;;22.45;10.05;;;;;;;;;;4995976;28;20405;-87
2024/01/12 04:02:07;;;;;;;21.25;9.95;;;;;;;;;;4998825;28;20036;-87
2024/01/12 04:04:32;;;;;;;19.38;9.45;;;;;;;;;;4995274;28;20117;-88
2024/01/12 04:06:58;;;;;;;21.27;9.52;;;;;;;;;;4996305;28;20038;-87
2024/01/12 04:09:23;;;;;;;24.13;10.18;;;;;;;;;;4993252;28;20023;-87
2024/01/12 04:11:49;;;;;;;22.95;10.15;;;;;;;;;;4996840;28;20045;-89
2024/01/12 04:14:14;;;;;;;22.42;10.43;;;;;;;;;;4998726;28;20030;-88
2024/01/12 04:16:41;;;;;;;18.77;9.13;;;;;;;;;;4996544;28;20077;-88
2024/01/12 04:19:06;;;;;;;20.17;9.77;;;;;;;;;;4997705;28;20030;-89
2024/01/12 04:21:32;;;;;;;22.08;10.00;;;;;;;;;;4997615;28;20030;-87
2024/01/12 04:23:59;;;;;;;24.08;10.70;;;;;;;;;;4979415;28;20034;-88
2024/01/12 04:26:25;;;;;;;24.05;10.32;;;;;;;;;;4980084;28;20039;-89
2024/01/12 04:28:50;;;;;;;23.60;9.35;;;;;;;;;;4991669;28;20031;-89
2024/01/12 04:31:16;;;;;;;21.05;8.95;;;;;;;;;;4995789;28;20121;-89
2024/01/12 04:33:41;;;;;;;20.75;9.35;;;;;;;;;;4994580;28;20030;-87
2024/01/12 04:36:07;;;;;;;21.08;9.68;;;;;;;;;;4996458;28;20038;-88
2024/01/12 04:38:32;;;;;;;16.73;8.32;;;;;;;;;;4993507;28;20113;-88
2024/01/12 04:40:58;;;;;;;24.73;9.55;;;;;;;;;;4992600;28;20427;-89
2024/01/12 04:43:23;;;;;;;22.20;10.25;;;;;;;;;;4992129;28;20492;-89
2024/01/12 04:45:49;;;;;;;24.58;10.13;;;;;;;;;;4999006;28;20130;-88
2024/01/12 04:48:14;;;;;;;21.27;10.00;;;;;;;;;;4999075;28;20038;-88
2024/01/12 04:50:40;;;;;;;20.58;9.70;;;;;;;;;;4997415;28;20129;-88
2024/01/12 04:53:05;;;;;;;26.92;9.90;;;;;;;;;;4989068;28;20061;-88
2024/01/12 04:55:31;;;;;;;20.70;9.73;;;;;;;;;;4992815;28;20026;-87
2024/01/12 04:57:56;;;;;;;20.60;9.68;;;;;;;;;;4998230;28;20385;-89
2024/01/12 05:00:22;;;;;;;19.73;9.65;;;;;;;;;;4998021;28;20038;-88
2024/01/12 05:02:47;;;;;;;23.98;10.00;;;;;;;;;;4982122;28;20475;-87
2024/01/12 05:05:13;;;;;;;23.23;10.80;;;;;;;;;;4980622;28;20049;-87
2024/01/12 05:07:38;;;;;;;25.85;12.25;;;;;;;;;;4996623;28;20045;-88
2024/01/12 05:10:05;;;;;;;25.55;12.20;;;;;;;;;;4989940;28;20102;-87
2024/01/12 05:12:31;;;;;;;24.98;11.15;;;;;;;;;;4994005;28;20140;-86
2024/01/12 05:14:58;;;;;;;22.48;10.02;;;;;;;;;;4993216;28;20117;-88
2024/01/12 05:17:24;;;;;;;24.25;10.15;;;;;;;;;;4997793;28;20058;-87
2024/01/12 05:19:49;;;;;;;21.00;10.43;;;;;;;;;;4999598;28;20042;-88
2024/01/12 05:22:15;;;;;;;23.55;10.82;;;;;;;;;;4985125;28;20027;-89
2024/01/12 05:24:41;;;;;;;22.45;9.48;;;;;;;;;;4996846;28;20042;-88
2024/01/12 05:27:07;;;;;;;25.55;9.98;;;;;;;;;;4991744;28;20126;-88
2024/01/12 05:29:33;;;;;;;23.35;9.77;;;;;;;;;;4990588;28;20041;-88
2024/01/12 05:32:00;;;;;;;20.60;9.40;;;;;;;;;;4997516;28;20034;-88
2024/01/12 05:34:25;;;;;;;26.48;10.30;;;;;;;;;;4996768;28;20038;-89
2024/01/12 05:36:51;;;;;;;22.52;10.20;;;;;;;;;;4995876;28;20084;-87
2024/01/12 05:39:16;;;;;;;21.20;9.60;;;;;;;;;;4995621;28;20042;-87
2024/01/12 05:41:42;;;;;;;24.77;10.25;;;;;;;;;;4998560;28;20038;-88
2024/01/12 05:44:08;;;;;;;27.58;11.45;;;;;;;;;;4997792;28;20022;-89
2024/01/12 05:46:33;;;;;;;27.63;11.35;;;;;;;;;;4996348;28;20124;-87
2024/01/12 05:49:00;;;;;;;25.17;11.38;;;;;;;;;;4977073;28;20530;-87
2024/01/12 05:51:26;;;;;;;30.10;11.50;;;;;;;;;;4997541;28;20039;-88
2024/01/12 05:53:51;;;;;;;25.70;11.07;;;;;;;;;;4996752;28;20053;-89
2024/01/12 05:56:17;;;;;;;24.30;10.45;;;;;;;;;;4998614;28;20436;-88
2024/01/12 05:58:42;;;;;;;22.63;10.27;;;;;;;;;;4995811;28;20556;-89
2024/01/12 06:01:08;;;;;;;29.15;10.85;;;;;;;;;;4996690;28;20022;-89
2024/01/12 06:03:34;;;;;;;23.65;10.50;;;;;;;;;;4997149;28;20061;-89
2024/01/12 06:05:59;;;;;;;23.80;10.48;;;;;;;;;;4997115;28;20113;-87
2024/01/12 06:08:25;;;;;;;26.92;11.77;;;;;;;;;;4994630;28;20050;-88
2024/01/12 06:10:50;;;;;;;23.88;10.43;;;;;;;;;;4985352;28;20035;-88
2024/01/12 06:13:16;;;;;;;28.10;11.57;;;;;;;;;;4994586;28;20044;-88
2024/01/12 06:15:42;;;;;;;26.98;11.63;;;;;;;;;;4998935;28;20488;-88
2024/01/12 06:18:08;;;;;;;28.13;12.23;;;;;;;;;;4997611;28;20034;-89
2024/01/12 06:20:34;;;;;;;29.75;11.88;;;;;;;;;;4979081;28;20084;-89
2024/01/12 06:22:59;;;;;;;38.53;14.65;;;;;;;;;;4980850;28;20026;-87
2024/01/12 06:25:24;;;;;;;44.38;17.38;;;;;;;;;;4998514;28;20038;-87
2024/01/12 06:27:50;;;;;;;46.15;17.15;;;;;;;;;;4997361;28;20412;-87
2024/01/12 06:30:16;;;;;;;39.25;15.48;;;;;;;;;;4992637;28;20037;-86
2024/01/12 06:32:42;;;;;;;39.15;15.10;;;;;;;;;;4979350;28;20491;-86
2024/01/12 06:35:10;;;;;;;27.95;11.65;;;;;;;;;;4968097;28;20027;-87
2024/01/12 06:37:35;;;;;;;21.83;9.90;;;;;;;;;;4977318;28;20069;-85
2024/01/12 06:40:01;;;;;;;22.95;10.32;;;;;;;;;;4979073;28;20125;-85
2024/01/12 06:42:28;;;;;;;26.55;11.02;;;;;;;;;;4971133;28;20049;-87
2024/01/12 06:44:54;;;;;;;38.30;14.88;;;;;;;;;;4998682;28;20121;-87
2024/01/12 06:47:19;;;;;;;41.33;15.57;;;;;;;;;;4996328;28;20042;-87
2024/01/12 06:49:45;;;;;;;32.88;13.30;;;;;;;;;;4979715;28;20026;-87
2024/01/12 06:52:11;;;;;;;37.67;14.80;;;;;;;;;;4995706;28;20038;-87
2024/01/12 06:54:37;;;;;;;34.97;13.70;;;;;;;;;;4991802;28;20534;-87
2024/01/12 06:57:03;;;;;;;32.88;14.13;;;;;;;;;;4995573;28;20042;-87
2024/01/12 06:59:28;;;;;;;28.17;11.38;;;;;;;;;;4980194;28;20034;-88
2024/01/12 07:01:54;;;;;;;24.85;11.02;;;;;;;;;;4995656;28;20037;-87
2024/01/12 07:04:19;;;;;;;22.42;9.90;;;;;;;;;;4993207;28;20141;-86
2024/01/12 07:06:46;;;;;;;28.27;10.25;;;;;;;;;;4996229;28;20081;-88
2024/01/12 07:09:13;;;;;;;26.98;11.77;;;;;;;;;;4996502;28;20460;-87
2024/01/12 07:11:42;;;;;;;29.35;11.95;;;;;;;;;;4974041;28;20049;-88
2024/01/12 07:14:14;;;;;;;32.80;13.98;;;;;;;;;;4972008;28;20029;-89
2024/01/12 07:16:40;;;;;;;32.92;14.38;;;;;;;;;;4961754;28;20030;-87
2024/01/12 07:19:06;;;;;;;42.15;15.25;;;;;;;;;;4992981;28;20116;-87
2024/01/12 07:21:32;;;;;;;32.00;13.98;;;;;;;;;;4991482;28;20026;-87
2024/01/12 07:23:58;;;;;;;27.40;12.38;;;;;;;;;;4993312;28;20113;-87
2024/01/12 07:26:24;;;;;;;29.77;12.77;;;;;;;;;;4974653;28;20126;-86
2024/01/12 07:28:49;;;;;;;23.65;11.02;;;;;;;;;;4987300;28;20283;-85
2024/01/12 07:31:15;;;;;;;32.00;12.57;;;;;;;;;;4994859;28;20030;-86
2024/01/12 07:33:40;;;;;;;28.70;12.40;;;;;;;;;;4988679;28;20392;-86
2024/01/12 07:36:07;;;;;;;28.38;11.60;;;;;;;;;;4987630;28;20038;-85
2024/01/12 07:38:33;;;;;;;23.58;11.15;;;;;;;;;;4994465;28;20099;-86
2024/01/12 07:40:58;;;;;;;25.27;11.00;;;;;;;;;;4994606;28;20476;-86
2024/01/12 07:43:26;;;;;;;26.38;11.13;;;;;;;;;;4990288;28;20045;-90
2024/01/12 07:45:53;;;;;;;25.60;11.77;;;;;;;;;;4995971;28;20035;-88
2024/01/12 07:48:18;;;;;;;27.23;12.63;;;;;;;;;;4994168;28;20034;-87
2024/01/12 07:50:44;;;;;;;26.65;12.43;;;;;;;;;;4953878;28;20034;-86
2024/01/12 07:53:09;;;;;;;23.58;11.15;;;;;;;;;;4976261;28;20030;-89
2024/01/12 07:55:35;;;;;;;28.42;11.32;;;;;;;;;;4977571;28;20026;-89
2024/01/12 07:58:00;;;;;;;26.13;11.00;;;;;;;;;;4996891;28;20041;-88
2024/01/12 08:00:25;;;;;;;25.10;11.10;;;;;;;;;;4996846;28;20342;-89
2024/01/12 08:02:52;;;;;;;24.30;11.25;;;;;;;;;;4997375;28;20038;-86
2024/01/12 08:05:24;;;;;;;30.42;11.98;;;;;;;;;;4995949;28;20091;-86
2024/01/12 08:07:51;;;;;;;25.20;10.88;;;;;;;;;;4996326;28;20030;-87
2024/01/12 08:10:18;;;;;;;25.58;10.82;;;;;;;;;;4995751;28;20122;-86
2024/01/12 08:12:50;;;;;;;21.73;9.70;;;;;;;;;;4993661;28;20038;-85
2024/01/12 08:15:16;;;;;;;21.52;9.65;;;;;;;;;;4995801;28;20030;-88
2024/01/12 08:17:41;;;;;;;24.75;10.75;;;;;;;;;;4974997;28;20049;-87
2024/01/12 08:20:07;;;;;;;26.05;10.95;;;;;;;;;;4992301;28;20085;-88
2024/01/12 08:22:33;;;;;;;24.45;10.60;;;;;;;;;;4985210;28;20026;-88
2024/01/12 08:25:00;;;;;;;22.70;10.50;;;;;;;;;;4991072;28;20496;-85
2024/01/12 08:27:25;;;;;;;23.33;10.73;;;;;;;;;;4977615;28;20041;-85
2024/01/12 08:29:52;;;;;;;22.35;10.20;;;;;;;;;;4995803;28;20034;-87
2024/01/12 08:32:17;;;;;;;23.38;10.88;;;;;;;;;;4992134;28;20034;-87
2024/01/12 08:34:43;;;;;;;23.50;11.60;;;;;;;;;;4981097;28;20037;-92
2024/01/12 08:37:08;;;;;;;22.88;11.32;;;;;;;;;;4992963;28;20034;-88
2024/01/12 08:39:34;;;;;;;23.33;10.82;;;;;;;;;;4995480;28;20084;-88
2024/01/12 08:42:00;;;;;;;23.90;11.50;;;;;;;;;;4979687;28;20037;-89
2024/01/12 08:44:25;;;;;;;26.35;11.43;;;;;;;;;;4992536;28;20030;-87
2024/01/12 08:46:53;;;;;;;21.92;10.80;;;;;;;;;;4992550;28;20087;-88
2024/01/12 08:49:22;;;;;;;20.83;10.25;;;;;;;;;;4997501;28;20030;-88
2024/01/12 08:51:48;;;;;;;24.48;10.52;;;;;;;;;;4996131;28;20035;-87
2024/01/12 08:54:14;;;;;;;23.08;11.10;;;;;;;;;;4996185;28;20042;-87
2024/01/12 08:56:39;;;;;;;29.88;13.77;;;;;;;;;;4979451;28;20030;-89
2024/01/12 08:59:05;;;;;;;30.23;14.15;;;;;;;;;;4995713;28;20044;-88
2024/01/12 09:01:30;;;;;;;32.35;15.48;;;;;;;;;;4962843;28;20415;-89
2024/01/12 09:03:55;;;;;;;46.10;22.23;;;;;;;;;;4995309;28;20045;-86
2024/01/12 09:06:23;;;;;;;43.08;20.75;;;;;;;;;;4978359;28;20026;-87
2024/01/12 09:08:49;;;;;;;36.30;17.95;;;;;;;;;;4997264;28;20034;-86
2024/01/12 09:11:15;;;;;;;30.83;14.73;;;;;;;;;;4996886;28;20041;-87
2024/01/12 09:13:40;;;;;;;29.45;13.32;;;;;;;;;;4997408;28;20050;-88
2024/01/12 09:16:09;;;;;;;28.52;12.35;;;;;;;;;;4998723;28;20041;-86
2024/01/12 09:18:35;;;;;;;25.52;11.82;;;;;;;;;;4992589;28;20026;-89
2024/01/12 09:21:00;;;;;;;25.38;11.60;;;;;;;;;;4995132;28;20510;-88
2024/01/12 09:23:26;;;;;;;24.00;11.90;;;;;;;;;;4999187;28;20061;-86
2024/01/12 09:25:53;;;;;;;25.48;12.35;;;;;;;;;;4995823;28;20492;-87
2024/01/12 09:28:19;;;;;;;30.25;12.52;;;;;;;;;;4998365;28;20038;-87
2024/01/12 09:30:46;;;;;;;29.42;12.85;;;;;;;;;;4998358;28;20038;-87
2024/01/12 09:33:12;;;;;;;27.15;13.88;;;;;;;;;;4993130;28;20039;-88
2024/01/12 09:35:37;;;;;;;30.33;14.82;;;;;;;;;;4974754;28;20178;-87
2024/01/12 09:38:03;;;;;;;32.83;14.25;;;;;;;;;;4979477;28;20103;-89
2024/01/12 09:40:29;;;;;;;30.15;14.02;;;;;;;;;;4995589;28;20507;-85
2024/01/12 09:42:56;;;;;;;30.92;14.90;;;;;;;;;;4973795;28;20030;-87
2024/01/12 09:45:22;;;;;;;28.45;13.32;;;;;;;;;;4991063;28;20038;-89
2024/01/12 09:47:47;;;;;;;29.15;13.20;;;;;;;;;;4992423;28;20050;-86
2024/01/12 09:50:13;;;;;;;24.27;12.50;;;;;;;;;;4959286;28;20030;-87
2024/01/12 09:52:39;;;;;;;24.92;12.95;;;;;;;;;;4980498;28;20030;-87
2024/01/12 09:55:07;;;;;;;23.40;12.30;;;;;;;;;;5006170;28;20113;-88
2024/01/12 09:57:34;;;;;;;25.45;12.05;;;;;;;;;;4981476;28;20504;-88
2024/01/12 10:00:02;;;;;;;24.77;12.48;;;;;;;;;;4995009;28;20093;-84
2024/01/12 10:02:33;;;;;;;26.65;12.43;;;;;;;;;;4979192;28;20045;-86
2024/01/12 10:04:59;;;;;;;25.45;12.57;;;;;;;;;;4998237;28;20085;-87
2024/01/12 10:07:25;;;;;;;29.70;13.20;;;;;;;;;;4996395;28;20041;-86
2024/01/12 10:09:50;;;;;;;31.02;15.82;;;;;;;;;;4967897;28;20034;-87
2024/01/12 10:12:16;;;;;;;34.78;16.25;;;;;;;;;;5001186;28;20027;-88
2024/01/12 10:14:42;;;;;;;32.22;14.88;;;;;;;;;;4993210;28;20035;-88
2024/01/12 10:17:07;;;;;;;30.73;14.15;;;;;;;;;;4992624;28;20105;-88
2024/01/12 10:19:33;;;;;;;26.88;14.05;;;;;;;;;;4995533;28;20033;-86
2024/01/12 10:21:58;;;;;;;24.38;12.57;;;;;;;;;;4999961;28;20022;-87
2024/01/12 10:24:24;;;;;;;23.83;12.68;;;;;;;;;;4995167;28;20026;-87
2024/01/12 10:26:51;;;;;;;23.75;12.80;;;;;;;;;;4973418;28;20034;-86
2024/01/12 10:29:17;;;;;;;22.88;12.73;;;;;;;;;;4980814;28;20507;-87
2024/01/12 10:31:44;;;;;;;23.80;12.35;;;;;;;;;;4998007;28;20035;-87
2024/01/12 10:34:14;;;;;;;30.30;12.98;;;;;;;;;;4983881;28;20551;-88
2024/01/12 10:36:40;;;;;;;23.88;12.23;;;;;;;;;;4987683;28;20026;-87
2024/01/12 10:39:08;;;;;;;30.42;14.13;;;;;;;;;;4999211;28;20031;-87
2024/01/12 10:41:34;;;;;;;28.55;15.10;;;;;;;;;;4982191;28;20026;-88
2024/01/12 10:44:04;;;;;;;29.65;15.45;;;;;;;;;;4982111;28;20088;-88
2024/01/12 10:46:34;;;;;;;30.77;15.25;;;;;;;;;;4995877;28;20033;-86
2024/01/12 10:49:15;;;;;;;30.25;15.05;;;;;;;;;;4995052;28;20034;-88
2024/01/12 10:52:08;;;;;;;29.58;14.15;;;;;;;;;;4999713;28;20049;-87
2024/01/12 10:54:39;;;;;;;34.42;15.27;;;;;;;;;;4999741;28;20084;-87
2024/01/12 10:57:06;;;;;;;32.97;15.57;;;;;;;;;;4998750;28;20049;-88
2024/01/12 10:59:32;;;;;;;30.95;16.15;;;;;;;;;;4997929;28;20383;-87
2024/01/12 11:01:59;;;;;;;32.40;16.02;;;;;;;;;;4998747;28;20026;-88
2024/01/12 11:04:26;;;;;;;29.25;15.02;;;;;;;;;;4998421;28;20018;-89
2024/01/12 11:06:55;;;;;;;28.83;14.27;;;;;;;;;;4972916;28;20065;-88
2024/01/12 11:09:22;;;;;;;34.67;15.50;;;;;;;;;;4995215;28;20143;-88
2024/01/12 11:12:00;;;;;;;30.48;15.50;;;;;;;;;;4992615;28;20488;-88
2024/01/12 11:14:27;;;;;;;29.50;14.70;;;;;;;;;;4993689;28;20041;-92
2024/01/12 11:16:53;;;;;;;28.85;15.27;;;;;;;;;;4981512;28;20045;-88
2024/01/12 11:19:19;;;;;;;30.85;15.20;;;;;;;;;;4998902;28;20032;-89
2024/01/12 11:21:45;;;;;;;37.42;16.27;;;;;;;;;;4995934;28;20026;-87
2024/01/12 11:24:13;;;;;;;37.80;17.45;;;;;;;;;;4998394;28;20041;-87
2024/01/12 11:26:41;;;;;;;32.58;16.50;;;;;;;;;;4996207;28;20087;-86
2024/01/12 11:29:17;;;;;;;37.58;19.05;;;;;;;;;;4995556;28;20034;-87
2024/01/12 11:31:50;;;;;;;31.73;15.63;;;;;;;;;;4993356;28;20026;-85
2024/01/12 11:34:17;;;;;;;27.75;14.43;;;;;;;;;;4995502;28;20034;-87
2024/01/12 11:36:43;;;;;;;46.58;23.40;;;;;;;;;;4994077;28;20484;-86
2024/01/12 11:39:12;;;;;;;32.15;17.60;;;;;;;;;;4995482;28;20061;-85
2024/01/12 11:41:43;;;;;;;37.30;21.00;;;;;;;;;;4994249;28;20034;-85
2024/01/12 11:44:09;;;;;;;34.65;16.38;;;;;;;;;;4986308;28;20061;-85
2024/01/12 11:46:34;;;;;;;29.92;14.95;;;;;;;;;;4989704;28;20038;-87
2024/01/12 11:49:03;;;;;;;32.83;16.10;;;;;;;;;;4990395;28;20030;-86
2024/01/12 11:51:29;;;;;;;35.25;18.35;;;;;;;;;;4988236;28;20408;-86
2024/01/12 11:53:57;;;;;;;31.88;15.07;;;;;;;;;;4979296;28;20026;-86
2024/01/12 11:56:29;;;;;;;31.05;15.98;;;;;;;;;;4987226;28;20065;-86
2024/01/12 11:58:54;;;;;;;34.33;15.40;;;;;;;;;;4996777;28;20030;-88
2024/01/12 12:01:20;;;;;;;29.45;15.18;;;;;;;;;;4973901;28;20034;-85
2024/01/12 12:03:46;;;;;;;36.55;19.17;;;;;;;;;;4988840;28;20548;-84
2024/01/12 12:06:12;;;;;;;33.80;16.23;;;;;;;;;;4965670;28;20411;-87
2024/01/12 12:08:42;;;;;;;37.30;17.58;;;;;;;;;;4990982;28;20097;-88
2024/01/12 12:11:08;;;;;;;42.15;17.98;;;;;;;;;;4991544;28;20113;-87
2024/01/12 12:13:34;;;;;;;34.17;18.02;;;;;;;;;;4997068;28;20035;-86
2024/01/12 12:16:01;;;;;;;35.92;17.75;;;;;;;;;;4997038;28;20033;-87
2024/01/12 12:18:26;;;;;;;39.20;17.63;;;;;;;;;;4995557;28;20038;-90
2024/01/12 12:20:52;;;;;;;40.38;18.65;;;;;;;;;;4996465;28;20036;-86
2024/01/12 12:23:17;;;;;;;43.45;19.63;;;;;;;;;;4995318;28;20034;-87
2024/01/12 12:25:44;;;;;;;37.95;18.23;;;;;;;;;;4989927;28;20088;-85
2024/01/12 12:28:10;;;;;;;39.80;19.17;;;;;;;;;;4993651;28;20033;-85
2024/01/12 12:30:39;;;;;;;37.55;19.60;;;;;;;;;;4994691;28;20113;-85
2024/01/12 12:33:04;;;;;;;40.70;19.83;;;;;;;;;;4991357;28;20484;-87
2024/01/12 12:35:33;;;;;;;34.38;17.75;;;;;;;;;;4979216;28;20026;-86
2024/01/12 12:38:02;;;;;;;22.58;12.52;;;;;;;;;;4999109;28;20070;-84
2024/01/12 12:40:27;;;;;;;34.83;17.35;;;;;;;;;;5000344;28;20569;-87
2024/01/12 12:42:53;;;;;;;35.65;18.15;;;;;;;;;;4988736;28;20053;-87
2024/01/12 12:45:20;;;;;;;38.47;18.88;;;;;;;;;;4994137;28;20038;-87
2024/01/12 12:47:46;;;;;;;40.40;19.45;;;;;;;;;;4991085;28;20037;-88
2024/01/12 12:50:12;;;;;;;41.13;20.08;;;;;;;;;;4989676;28;20042;-88
2024/01/12 12:52:40;;;;;;;42.92;19.75;;;;;;;;;;4989408;28;20266;-88
2024/01/12 12:55:07;;;;;;;38.50;19.48;;;;;;;;;;4991503;28;20034;-88
2024/01/12 12:57:33;;;;;;;42.63;19.60;;;;;;;;;;4990941;28;20034;-89
2024/01/12 12:59:59;;;;;;;44.53;20.63;;;;;;;;;;4974667;28;20533;-88
2024/01/12 13:02:25;;;;;;;41.35;20.65;;;;;;;;;;4991131;28;20034;-88
2024/01/12 13:04:55;;;;;;;37.78;19.13;;;;;;;;;;4992090;28;20077;-87
2024/01/12 13:07:21;;;;;;;43.92;19.83;;;;;;;;;;4976112;28;20053;-87
2024/01/12 13:09:47;;;;;;;42.95;20.38;;;;;;;;;;4990014;28;20034;-88
2024/01/12 13:12:12;;;;;;;41.50;20.13;;;;;;;;;;4989037;28;20026;-89
2024/01/12 13:14:38;;;;;;;39.28;20.35;;;;;;;;;;4990528;28;20372;-88
2024/01/12 13:17:03;;;;;;;40.90;19.73;;;;;;;;;;4989359;28;20088;-88
2024/01/12 13:19:30;;;;;;;43.33;19.58;;;;;;;;;;4991157;28;20037;-88
2024/01/12 13:21:55;;;;;;;43.13;20.92;;;;;;;;;;4976296;28;20037;-88
2024/01/12 13:24:21;;;;;;;44.13;21.05;;;;;;;;;;4990372;28;20022;-88
2024/01/12 13:26:47;;;;;;;42.78;19.85;;;;;;;;;;4991465;28;20046;-88
2024/01/12 13:29:13;;;;;;;41.63;20.30;;;;;;;;;;4993048;28;20705;-88
2024/01/12 13:31:42;;;;;;;47.63;22.77;;;;;;;;;;4991445;28;20042;-89
2024/01/12 13:34:11;;;;;;;46.33;23.95;;;;;;;;;;4990586;28;20058;-88
2024/01/12 13:36:37;;;;;;;42.38;19.63;;;;;;;;;;4975121;28;20479;-89
2024/01/12 13:39:05;;;;;;;45.75;22.20;;;;;;;;;;4992589;28;20510;-87
2024/01/12 13:41:30;;;;;;;42.33;20.42;;;;;;;;;;4990031;28;20026;-87
2024/01/12 13:43:56;;;;;;;48.20;22.17;;;;;;;;;;4989231;28;20038;-88
2024/01/12 13:46:21;;;;;;;43.88;21.98;;;;;;;;;;4991571;28;20039;-87
2024/01/12 13:48:47;;;;;;;48.55;20.98;;;;;;;;;;4976163;28;20034;-90
2024/01/12 13:51:15;;;;;;;52.65;23.23;;;;;;;;;;4989925;28;20027;-87
2024/01/12 13:53:41;;;;;;;46.08;22.60;;;;;;;;;;4984224;28;20522;-90
2024/01/12 13:56:06;;;;;;;50.95;21.08;;;;;;;;;;4991764;28;20101;-89
2024/01/12 13:58:33;;;;;;;57.15;22.88;;;;;;;;;;4991012;28;20032;-87
2024/01/12 14:00:58;;;;;;;45.22;21.83;;;;;;;;;;4990980;28;20042;-88
2024/01/12 14:03:24;;;;;;;49.13;21.83;;;;;;;;;;4993725;28;20041;-88
2024/01/12 14:05:50;;;;;;;45.05;20.52;;;;;;;;;;4990365;28;20039;-89
2024/01/12 14:08:16;;;;;;;43.92;20.63;;;;;;;;;;4975167;28;20053;-89
2024/01/12 14:10:42;;;;;;;40.30;20.17;;;;;;;;;;4990586;28;20044;-89
2024/01/12 14:13:08;;;;;;;42.83;20.60;;;;;;;;;;4989403;28;20403;-89